»·PEaware :: WAT352 KDEN-KSDL

WAT352 :: KDEN-KSDL

FLIGHT INFORMATION

Flight Status: Arrived
Operator:
Walker Air Transport
More flights by this operator :: More flights under this callsign
Pilot: Matthew M. (27032)
Aircraft: DASSAULT AVIATION FALCON 50
(FA50)
More flights by this aircraft type
Origin: KDEN Denver Intl
United States
Destination: KSDL Scottsdale
United States
More flights between these airports :: More routes between these airports
Route: +SMMUR2 DAAYE FLG DSERT2
File this flight plan on PilotEdge
Remarks: RMK / SIMBRIEF
Altitude:
(Current/Filed)
43,000ft
Speed:
(Current/Filed)
457kts
Departed: 21-Nov-20 09:15 PM
Arrived: 21-Nov-20 10:42 PM
Distance/Time
Traveled:
510nm/1:27
Distance/Time
To Go:
Arrived

Flight Plot

Page will automatically refresh every two minutes.

Flight plan parsing failed; only flown route is shown


Map Options




Map Legend


Flown Route
Filed Route
Departure Airport
Arrival Airport
Navaid (VOR, NDB)
Fix

Horizontal Profiles

Position Reports

Time Latitude Longitude Heading Altitude Ground
Speed
21-Nov-20 20:54 39.838694 -104.665234 181 5441ft 0kts
21-Nov-20 20:55 39.838694 -104.665234 181 5441ft 0kts
21-Nov-20 20:56 39.838694 -104.665234 181 5441ft 0kts
21-Nov-20 20:57 39.838694 -104.665234 181 5441ft 0kts
21-Nov-20 20:58 39.838694 -104.665234 181 5441ft 0kts
21-Nov-20 20:59 39.838694 -104.665234 181 5441ft 0kts
21-Nov-20 21:00 39.838694 -104.665234 181 5441ft 0kts
21-Nov-20 21:01 39.838694 -104.665234 181 5441ft 0kts
21-Nov-20 21:02 39.838694 -104.665234 181 5441ft 0kts
21-Nov-20 21:03 39.838694 -104.665234 181 5441ft 0kts
21-Nov-20 21:04 39.838694 -104.665234 181 5441ft 0kts
21-Nov-20 21:05 39.838694 -104.665234 181 5441ft 0kts
21-Nov-20 21:06 39.838694 -104.665234 181 5441ft 0kts
21-Nov-20 21:07 39.839369 -104.663776 7 5441ft 11kts
21-Nov-20 21:08 39.841876 -104.662544 0 5441ft 16kts
21-Nov-20 21:09 39.845587 -104.662482 358 5441ft 13kts
21-Nov-20 21:10 39.850456 -104.662435 1 5441ft 16kts
21-Nov-20 21:11 39.855564 -104.662358 358 5441ft 25kts
21-Nov-20 21:12 39.860668 -104.662292 6 5441ft 6kts
21-Nov-20 21:13 39.859616 -104.660169 180 5441ft 37kts
21-Nov-20 21:14 39.815858 -104.662303 184 7438ft 211kts
21-Nov-20 21:15 39.745893 -104.662726 177 11048ft 272kts
21-Nov-20 21:16 39.663395 -104.659751 188 14156ft 328kts
21-Nov-20 21:17 39.574227 -104.712530 213 16953ft 365kts
21-Nov-20 21:18 39.484997 -104.783613 219 20161ft 383kts
21-Nov-20 21:19 39.391756 -104.860464 219 22822ft 401kts
21-Nov-20 21:20 39.293829 -104.940085 219 25079ft 414kts
21-Nov-20 21:21 39.192881 -105.021951 219 27055ft 424kts
21-Nov-20 21:22 39.086546 -105.098434 214 28675ft 438kts
21-Nov-20 21:23 38.975423 -105.170137 215 31102ft 420kts
21-Nov-20 21:24 38.874089 -105.235386 218 34259ft 383kts
21-Nov-20 21:25 38.776320 -105.298514 218 35903ft 382kts
21-Nov-20 21:26 38.679040 -105.360918 219 37480ft 379kts
21-Nov-20 21:27 38.582450 -105.422682 220 38796ft 379kts
21-Nov-20 21:28 38.486226 -105.484031 219 40006ft 378kts
21-Nov-20 21:29 38.390063 -105.544730 219 41043ft 380kts
21-Nov-20 21:30 38.293736 -105.604481 218 42015ft 379kts
21-Nov-20 21:31 38.198200 -105.663709 217 42820ft 381kts
21-Nov-20 21:32 38.101469 -105.723544 217 43387ft 390kts
21-Nov-20 21:33 38.005190 -105.791392 239 43406ft 380kts
21-Nov-20 21:34 37.952419 -105.907182 249 43387ft 383kts
21-Nov-20 21:35 37.900286 -106.028272 248 43396ft 395kts
21-Nov-20 21:36 37.845328 -106.151230 247 43412ft 401kts
21-Nov-20 21:37 37.789846 -106.274531 247 43429ft 402kts
21-Nov-20 21:38 37.734163 -106.397863 247 43441ft 403kts
21-Nov-20 21:39 37.678173 -106.521409 247 43437ft 403kts
21-Nov-20 21:40 37.621825 -106.645277 247 43435ft 402kts
21-Nov-20 21:41 37.565633 -106.768369 247 43454ft 403kts
21-Nov-20 21:43 37.509217 -106.891456 247 43430ft 404kts
21-Nov-20 21:44 37.452537 -107.014640 247 43396ft 404kts
21-Nov-20 21:45 37.395804 -107.137470 247 43381ft 403kts
21-Nov-20 21:46 37.339287 -107.259376 247 43379ft 401kts
21-Nov-20 21:47 37.282916 -107.380533 247 43377ft 399kts
21-Nov-20 21:48 37.226480 -107.501389 247 43362ft 399kts
21-Nov-20 21:49 37.170016 -107.621855 247 43344ft 398kts
21-Nov-20 21:50 37.113627 -107.741736 246 43347ft 399kts
21-Nov-20 21:51 37.056785 -107.862120 246 43343ft 400kts
21-Nov-20 21:52 36.999797 -107.982363 246 43341ft 399kts
21-Nov-20 21:53 36.942651 -108.102503 246 43326ft 398kts
21-Nov-20 21:54 36.885494 -108.222241 246 43300ft 397kts
21-Nov-20 21:55 36.828743 -108.340687 247 43293ft 395kts
21-Nov-20 21:56 36.771856 -108.459014 247 43290ft 394kts
21-Nov-20 21:57 36.715151 -108.576542 247 43288ft 393kts
21-Nov-20 21:58 36.658496 -108.693567 246 43310ft 393kts
21-Nov-20 21:59 36.601512 -108.810881 246 43309ft 394kts
21-Nov-20 21:59 36.553983 -108.908378 246 43312ft 394kts
21-Nov-20 22:01 36.487087 -109.045118 246 43326ft 394kts
21-Nov-20 22:01 36.439370 -109.142239 246 43336ft 393kts
21-Nov-20 22:03 36.372671 -109.277730 246 43342ft 392kts
21-Nov-20 22:03 36.324962 -109.374273 246 43340ft 391kts
21-Nov-20 22:04 36.267644 -109.489874 246 43337ft 390kts
21-Nov-20 22:06 36.201537 -109.622606 246 43820ft 381kts
21-Nov-20 22:06 36.155352 -109.715072 246 44476ft 373kts
21-Nov-20 22:07 36.100870 -109.823899 245 45292ft 368kts
21-Nov-20 22:08 36.045732 -109.933890 245 45353ft 380kts
21-Nov-20 22:09 35.988572 -110.047289 245 45336ft 387kts
21-Nov-20 22:10 35.930461 -110.162157 245 45311ft 391kts
21-Nov-20 22:11 35.871670 -110.277986 245 45293ft 393kts
21-Nov-20 22:12 35.812603 -110.393965 245 45284ft 394kts
21-Nov-20 22:13 35.753423 -110.509790 245 45282ft 393kts
21-Nov-20 22:14 35.694195 -110.625330 244 45281ft 393kts
21-Nov-20 22:15 35.635002 -110.740438 244 45298ft 394kts
21-Nov-20 22:16 35.575070 -110.856634 244 44731ft 400kts
21-Nov-20 22:17 35.516347 -110.969698 245 42707ft 375kts
21-Nov-20 22:18 35.460892 -111.076413 246 40668ft 357kts
21-Nov-20 22:19 35.407869 -111.178206 246 38621ft 343kts
21-Nov-20 22:20 35.355190 -111.279401 246 36566ft 356kts
21-Nov-20 22:21 35.299318 -111.386258 245 34518ft 379kts
21-Nov-20 22:22 35.239990 -111.499038 244 32446ft 395kts
21-Nov-20 22:23 35.174177 -111.611952 231 30353ft 416kts
21-Nov-20 22:24 35.064491 -111.672452 192 28304ft 453kts
21-Nov-20 22:25 34.936497 -111.671573 186 26307ft 449kts
21-Nov-20 22:26 34.820505 -111.670330 185 24452ft 441kts
21-Nov-20 22:27 34.698423 -111.668933 185 22462ft 435kts
21-Nov-20 22:28 34.578332 -111.667559 184 20483ft 431kts
21-Nov-20 22:29 34.458795 -111.666655 187 18489ft 425kts
21-Nov-20 22:30 34.344967 -111.695914 198 16495ft 414kts
21-Nov-20 22:31 34.233244 -111.729994 197 14499ft 411kts
21-Nov-20 22:32 34.122190 -111.763631 196 12497ft 409kts
21-Nov-20 22:33 34.012404 -111.796730 195 10718ft 378kts
21-Nov-20 22:34 33.923414 -111.823495 194 9845ft 288kts
21-Nov-20 22:35 33.849166 -111.847170 198 8095ft 271kts
21-Nov-20 22:36 33.779652 -111.868131 176 6990ft 233kts
21-Nov-20 22:37 33.719653 -111.854674 160 5713ft 211kts
21-Nov-20 22:38 33.678359 -111.855529 197 4263ft 127kts
21-Nov-20 22:39 33.651449 -111.877633 225 2381ft 123kts
21-Nov-20 22:40 33.626939 -111.905858 224 1497ft 109kts
21-Nov-20 22:41 33.617563 -111.917601 314 1457ft 0kts
21-Nov-20 22:42 33.617563 -111.917601 314 1457ft 0kts
21-Nov-20 22:43 33.618801 -111.916403 44 1460ft 15kts
21-Nov-20 22:44 33.620941 -111.913306 162 1470ft 9kts
21-Nov-20 22:45 33.622604 -111.909730 43 1480ft 18kts
21-Nov-20 22:46 33.625909 -111.905658 124 1492ft 5kts
21-Nov-20 22:47 33.626165 -111.904319 164 1494ft 0kts
21-Nov-20 22:48 33.626163 -111.904319 164 1494ft 0kts
21-Nov-20 22:49 33.626163 -111.904319 164 1494ft 0kts
21-Nov-20 22:50 33.626163 -111.904319 164 1494ft 0kts
21-Nov-20 22:51 33.626163 -111.904319 164 1494ft 0kts

Navigation Log

Ident Type
Flight plan parsing failed, navigation log unavailable